This is the latest recevied weather packets stored in our database for station/object VA2DG-13. If no packets are shown the sender has not sent any weather packets the latest 10 day(s).
| Time | Temp. | Humidity | Pressure | Rain* | Wind** | Luminosity | Snow |
|---|---|---|---|---|---|---|---|
| 1777871406 | 6.11° C | 51% | 1004.3 hPa | 0 mm | - | - | - |
| 1777871106 | 6.11° C | 51% | 1004.3 hPa | 0 mm | - | - | - |
| 1777870206 | 6.11° C | 50% | 1004.5 hPa | 0 mm | - | - | - |
| 1777869606 | 6.11° C | 49% | 1004.7 hPa | 0 mm | - | - | - |
| 1777866606 | 7.22° C | 45% | 1004.7 hPa | 0 mm | - | - | - |
| 1777865706 | 6.67° C | 47% | 1004.7 hPa | 0 mm | - | - | - |
| 1777865105 | 6.67° C | 48% | 1004.8 hPa | 0 mm | - | - | - |
| 1777864505 | 6.67° C | 49% | 1004.7 hPa | 0 mm | - | - | - |
| 1777862706 | 6.67° C | 49% | 1005 hPa | 0 mm | - | - | - |
| 1777861806 | 6.11° C | 52% | 1005 hPa | 0 mm | - | - | - |
| 1777861506 | 6.11° C | 52% | 1005.2 hPa | 0 mm | - | - | - |
| 1777857306 | 7.78° C | 50% | 1005.3 hPa | 0 mm | - | - | - |
| 1777852806 | 9.44° C | 44% | 1004.8 hPa | 0 mm | - | - | - |
| 1777852506 | 10° C | 44% | 1004.8 hPa | 0 mm | - | - | - |
| 1777850406 | 11.11° C | 38% | 1004.7 hPa | 0 mm | - | - | - |
| 1777848306 | 12.22° C | 33% | 1004.6 hPa | 0 mm | - | - | - |
| 1777847705 | 12.22° C | 32% | 1004.7 hPa | 0 mm | - | - | - |
| 1777845906 | 12.22° C | 33% | 1004.7 hPa | 0 mm | - | - | - |
| 1777844105 | 11.67° C | 34% | 1004.9 hPa | 0 mm | - | - | - |
| 1777843806 | 11.67° C | 34% | 1004.9 hPa | 0 mm | - | - | - |
| 1777843505 | 12.22° C | 33% | 1005 hPa | 0 mm | - | - | - |
| 1777843206 | 11.67° C | 36% | 1004.8 hPa | 0 mm | - | - | - |
| 1777842306 | 11.67° C | 36% | 1004.9 hPa | 0 mm | - | - | - |
| 1777830605 | 10.56° C | 40% | 1006.6 hPa | 0 mm | - | - | - |
| 1777830305 | 10° C | 42% | 1006.6 hPa | 0 mm | - | - | - |
* Rain latest hour (hover to see other rain measurements)
** Current wind speed in m/s (hover to see current wind gust speed)